NKS273 KFLL-KATL
Flight info
| Callsign | NKS273 |
|---|---|
| Flight time | N/A |
| Altitude | 38000 |
| Route | FRSBE2 STYMY Q77 MJAMS/N0439F390 Q77 SHRKS/N0440F380 LAIRI LARZZ JJEDI4 |
| Aircraft | A20N/M-SDE2E3FGHIRWXY/LB1 |
Departure
| Time | 2026-05-03 20:55 |
|---|---|
| Airport | Fort Lauderdale Hollywood International Airport (KFLL) |
Arrival
| Time | N/A |
|---|---|
| Airport | Hartsfield Jackson Atlanta International Airport (KATL) |
| Time | Latitude | Longitude | Altitude | Speed | Heading |
|---|---|---|---|---|---|
| 2026-05-03 20:15 | 26.07263 | -80.14661 | 12 ft | 0 kts | 46° |
| 2026-05-03 20:19 | 26.07261 | -80.14664 | 12 ft | 2 kts | 46° |
| 2026-05-03 20:19 | 26.07251 | -80.14676 | 12 ft | 2 kts | 46° |
| 2026-05-03 20:19 | 26.07244 | -80.14683 | 12 ft | 1 kts | 46° |
| 2026-05-03 20:20 | 26.07231 | -80.14692 | 12 ft | 2 kts | 7° |
| 2026-05-03 20:20 | 26.07216 | -80.14690 | 12 ft | 2 kts | 331° |
| 2026-05-03 20:20 | 26.07205 | -80.14678 | 12 ft | 2 kts | 295° |
| 2026-05-03 20:20 | 26.07203 | -80.14670 | 12 ft | 1 kts | 274° |
| 2026-05-03 20:21 | 26.07202 | -80.14665 | 12 ft | 0 kts | 279° |
| 2026-05-03 20:25 | 26.07203 | -80.14666 | 12 ft | 1 kts | 279° |
| 2026-05-03 20:25 | 26.07206 | -80.14687 | 12 ft | 5 kts | 280° |
| 2026-05-03 20:25 | 26.07211 | -80.14715 | 12 ft | 0 kts | 282° |
| 2026-05-03 20:28 | 26.07212 | -80.14745 | 12 ft | 7 kts | 260° |
| 2026-05-03 20:28 | 26.07170 | -80.14806 | 12 ft | 10 kts | 225° |
| 2026-05-03 20:28 | 26.07129 | -80.14879 | 12 ft | 11 kts | 270° |
| 2026-05-03 20:29 | 26.07169 | -80.14958 | 12 ft | 12 kts | 286° |
| 2026-05-03 20:29 | 26.07129 | -80.15039 | 12 ft | 12 kts | 224° |
| 2026-05-03 20:29 | 26.07075 | -80.15107 | 12 ft | 9 kts | 264° |
| 2026-05-03 20:29 | 26.07135 | -80.15128 | 12 ft | 11 kts | 0° |
| 2026-05-03 20:30 | 26.07229 | -80.15126 | 12 ft | 15 kts | 1° |
| 2026-05-03 20:30 | 26.07349 | -80.15126 | 12 ft | 17 kts | 0° |
| 2026-05-03 20:30 | 26.07467 | -80.15134 | 12 ft | 16 kts | 329° |
| 2026-05-03 20:30 | 26.07492 | -80.15255 | 12 ft | 16 kts | 270° |
| 2026-05-03 20:31 | 26.07492 | -80.15385 | 12 ft | 17 kts | 270° |
| 2026-05-03 20:31 | 26.07493 | -80.15518 | 12 ft | 17 kts | 270° |
| 2026-05-03 20:31 | 26.07494 | -80.15652 | 12 ft | 17 kts | 271° |
| 2026-05-03 20:31 | 26.07494 | -80.15788 | 12 ft | 17 kts | 271° |
| 2026-05-03 20:32 | 26.07495 | -80.15923 | 12 ft | 17 kts | 271° |
| 2026-05-03 20:32 | 26.07496 | -80.16061 | 12 ft | 17 kts | 270° |
| 2026-05-03 20:32 | 26.07497 | -80.16199 | 12 ft | 17 kts | 270° |
| 2026-05-03 20:32 | 26.07497 | -80.16318 | 12 ft | 11 kts | 270° |
| 2026-05-03 20:33 | 26.07497 | -80.16359 | 12 ft | 0 kts | 270° |
| 2026-05-03 20:34 | 26.07497 | -80.16373 | 12 ft | 5 kts | 270° |
| 2026-05-03 20:34 | 26.07498 | -80.16439 | 12 ft | 7 kts | 270° |
| 2026-05-03 20:34 | 26.07498 | -80.16457 | 12 ft | 0 kts | 270° |
| 2026-05-03 20:42 | 26.07498 | -80.16486 | 12 ft | 8 kts | 270° |
| 2026-05-03 20:42 | 26.07498 | -80.16533 | 12 ft | 0 kts | 270° |
| 2026-05-03 20:43 | 26.07498 | -80.16541 | 12 ft | 1 kts | 270° |
| 2026-05-03 20:43 | 26.07498 | -80.16544 | 12 ft | 0 kts | 270° |
| 2026-05-03 20:46 | 26.07498 | -80.16563 | 12 ft | 6 kts | 270° |
| 2026-05-03 20:46 | 26.07500 | -80.16617 | 12 ft | 7 kts | 283° |
| 2026-05-03 20:46 | 26.07525 | -80.16641 | 12 ft | 0 kts | 350° |
| 2026-05-03 20:46 | 26.07528 | -80.16641 | 12 ft | 1 kts | 350° |
| 2026-05-03 20:47 | 26.07536 | -80.16643 | 12 ft | 0 kts | 350° |
| 2026-05-03 20:49 | 26.07539 | -80.16644 | 12 ft | 1 kts | 354° |
| 2026-05-03 20:49 | 26.07572 | -80.16644 | 12 ft | 6 kts | 1° |
| 2026-05-03 20:49 | 26.07592 | -80.16643 | 12 ft | 0 kts | 1° |
| 2026-05-03 20:52 | 26.07616 | -80.16642 | 12 ft | 10 kts | 1° |
| 2026-05-03 20:53 | 26.07686 | -80.16623 | 12 ft | 10 kts | 56° |
| 2026-05-03 20:53 | 26.07693 | -80.16579 | 12 ft | 0 kts | 89° |
| 2026-05-03 20:55 | 26.07693 | -80.16353 | 12 ft | 68 kts | 90° |
| 2026-05-03 20:55 | 26.07689 | -80.15560 | 12 ft | 135 kts | 90° |
| 2026-05-03 20:55 | 26.07685 | -80.14326 | 230 ft | 169 kts | 89° |
| 2026-05-03 20:55 | 26.07671 | -80.12988 | 784 ft | 178 kts | 89° |
| 2026-05-03 20:56 | 26.07675 | -80.11643 | 1614 ft | 175 kts | 88° |
| 2026-05-03 20:56 | 26.07696 | -80.10307 | 2261 ft | 180 kts | 85° |
| 2026-05-03 20:56 | 26.08000 | -80.08924 | 2754 ft | 191 kts | 66° |
| 2026-05-03 20:56 | 26.08637 | -80.07587 | 3211 ft | 206 kts | 49° |
| 2026-05-03 20:57 | 26.09859 | -80.06647 | 3641 ft | 221 kts | 20° |
| 2026-05-03 20:57 | 26.11405 | -80.06073 | 3876 ft | 251 kts | 17° |
| 2026-05-03 20:57 | 26.13135 | -80.05446 | 3966 ft | 268 kts | 18° |
| 2026-05-03 20:57 | 26.14923 | -80.04906 | 3961 ft | 268 kts | 4° |
| 2026-05-03 20:58 | 26.16787 | -80.05052 | 3968 ft | 265 kts | 343° |
| 2026-05-03 20:58 | 26.18547 | -80.05701 | 3975 ft | 264 kts | 339° |
| 2026-05-03 20:58 | 26.20272 | -80.06405 | 4076 ft | 269 kts | 339° |
| 2026-05-03 20:58 | 26.21963 | -80.07359 | 4784 ft | 274 kts | 317° |
| 2026-05-03 20:59 | 26.23062 | -80.08984 | 5839 ft | 269 kts | 292° |
| 2026-05-03 20:59 | 26.23738 | -80.10890 | 6868 ft | 267 kts | 289° |
| 2026-05-03 20:59 | 26.24393 | -80.12811 | 7789 ft | 270 kts | 289° |
| 2026-05-03 20:59 | 26.25092 | -80.14752 | 8687 ft | 273 kts | 291° |
| 2026-05-03 21:00 | 26.25940 | -80.16643 | 9567 ft | 276 kts | 296° |
| 2026-05-03 21:00 | 26.26255 | -80.17255 | 9845 ft | 278 kts | 298° |
| 2026-05-03 21:00 | 26.27987 | -80.20344 | 10996 ft | 291 kts | 299° |
| 2026-05-03 21:00 | 26.29073 | -80.22255 | 11700 ft | 297 kts | 299° |
| 2026-05-03 21:01 | 26.30178 | -80.24197 | 12386 ft | 300 kts | 299° |
| 2026-05-03 21:01 | 26.31304 | -80.26182 | 12816 ft | 302 kts | 299° |
| 2026-05-03 21:01 | 26.32416 | -80.28138 | 12972 ft | 302 kts | 299° |
| 2026-05-03 21:01 | 26.33546 | -80.30129 | 12976 ft | 301 kts | 299° |
| 2026-05-03 21:02 | 26.34658 | -80.32086 | 12979 ft | 301 kts | 298° |
| 2026-05-03 21:02 | 26.35779 | -80.34062 | 12977 ft | 301 kts | 298° |
| 2026-05-03 21:02 | 26.36901 | -80.36043 | 12983 ft | 301 kts | 299° |
| 2026-05-03 21:02 | 26.38014 | -80.38010 | 12987 ft | 301 kts | 298° |
| 2026-05-03 21:03 | 26.39140 | -80.39998 | 12980 ft | 301 kts | 298° |
| 2026-05-03 21:03 | 26.40246 | -80.41952 | 13029 ft | 303 kts | 298° |
| 2026-05-03 21:03 | 26.41389 | -80.43977 | 13496 ft | 310 kts | 298° |
| 2026-05-03 21:03 | 26.42521 | -80.45977 | 14368 ft | 308 kts | 298° |
| 2026-05-03 21:04 | 26.43665 | -80.48002 | 15137 ft | 309 kts | 298° |
| 2026-05-03 21:04 | 26.44819 | -80.50042 | 15857 ft | 312 kts | 297° |